Time;durP1;ratioP1;P1;durP2;ratioP2;P2;SDS_P1;SDS_P2;PMS_P1;PMS_P2;Temp;Humidity;BMP_temperature;BMP_pressure;BME280_temperature;BME280_humidity;BME280_pressure;Samples;Min_cycle;Max_cycle;Signal;HPM_P1;HPM_P2
2022/07/29 00:01:43;;;;;;;1.55;1.10;;;;;;;15.08;100.00;102035.53;6232793;23;20017;-76
2022/07/29 00:04:12;;;;;;;3.03;1.23;;;;;;;15.08;100.00;102030.22;6211263;23;20312;-76
2022/07/29 00:06:41;;;;;;;1.40;1.00;;;;;;;15.07;100.00;102029.34;6186133;23;20308;-76
2022/07/29 00:09:10;;;;;;;1.95;1.20;;;;;;;15.07;100.00;102036.41;6235658;23;20021;-75
2022/07/29 00:11:38;;;;;;;9.30;1.45;;;;;;;15.05;100.00;102025.78;6212834;23;20342;-76
2022/07/29 00:14:07;;;;;;;1.83;1.35;;;;;;;15.04;100.00;102026.66;6185347;23;20249;-76
2022/07/29 00:16:36;;;;;;;2.38;1.30;;;;;;;15.07;100.00;102028.47;6233672;23;20028;-76
2022/07/29 00:19:05;;;;;;;4.75;1.50;;;;;;;15.07;100.00;102025.81;6234601;23;20016;-75
2022/07/29 00:21:35;;;;;;;1.10;1.00;;;;;;;15.04;100.00;102025.78;6202748;23;20469;-75
2022/07/29 00:24:03;;;;;;;3.42;1.30;;;;;;;15.01;100.00;102016.94;6217649;23;20378;-75
2022/07/29 00:26:32;;;;;;;2.40;1.40;;;;;;;15.00;100.00;102020.44;6214992;23;20021;-75
2022/07/29 00:29:04;;;;;;;2.38;1.40;;;;;;;14.98;100.00;102011.59;6233274;23;20637;-75
2022/07/29 00:31:52;;;;;;;2.50;1.27;;;;;;;14.97;100.00;102017.81;6204901;23;20031;-75
2022/07/29 00:37:08;;;;;;;3.42;1.30;;;;;;;14.96;100.00;102009.81;6200720;23;20256;-75
2022/07/29 00:39:36;;;;;;;4.18;1.23;;;;;;;14.95;100.00;102019.56;6218881;23;20013;-75
2022/07/29 00:42:08;;;;;;;1.35;1.25;;;;;;;14.94;100.00;102008.94;6224638;23;20142;-75
2022/07/29 00:44:40;;;;;;;2.00;1.30;;;;;;;14.94;100.00;102012.47;6212198;23;20044;-75
2022/07/29 00:47:10;;;;;;;2.13;1.70;;;;;;;14.94;100.00;102007.16;6205710;23;20055;-75
2022/07/29 00:49:41;;;;;;;1.58;1.10;;;;;;;14.94;100.00;102001.84;6212416;23;20031;-76
2022/07/29 00:52:11;;;;;;;1.73;1.23;;;;;;;14.94;100.00;102003.63;6210458;23;20312;-76
2022/07/29 00:54:43;;;;;;;4.07;2.10;;;;;;;14.94;100.00;102001.84;6216953;23;20021;-76
2022/07/29 00:57:13;;;;;;;2.65;1.20;;;;;;;14.93;100.00;102005.41;6211687;23;20123;-76
2022/07/29 00:59:41;;;;;;;1.88;1.20;;;;;;;14.93;100.00;101997.44;6213236;23;20028;-76
2022/07/29 01:02:10;;;;;;;2.05;1.30;;;;;;;14.92;100.00;101994.78;6232536;23;20057;-78
2022/07/29 01:04:40;;;;;;;2.97;1.35;;;;;;;14.90;100.00;101984.16;6214616;23;20027;-79
2022/07/29 01:07:09;;;;;;;3.85;1.58;;;;;;;14.90;100.00;101988.59;6201813;23;20020;-78
2022/07/29 01:09:40;;;;;;;2.13;1.10;;;;;;;14.89;100.00;101978.84;6191866;23;20021;-78
2022/07/29 01:12:18;;;;;;;3.45;1.40;;;;;;;14.86;100.00;101984.13;6181099;23;20645;-78
2022/07/29 01:14:49;;;;;;;2.83;1.40;;;;;;;14.86;100.00;101976.16;6238877;23;20021;-78
2022/07/29 01:17:26;;;;;;;1.75;1.30;;;;;;;14.85;100.00;101985.03;6209420;23;20020;-78
2022/07/29 01:20:17;;;;;;;1.88;1.30;;;;;;;14.82;100.00;101972.63;6228850;23;20017;-78
2022/07/29 01:23:10;;;;;;;3.08;1.67;;;;;;;14.79;100.00;101970.84;6205743;23;20122;-78
2022/07/29 01:25:57;;;;;;;4.55;1.40;;;;;;;14.77;100.00;101971.72;6197676;23;20468;-78
2022/07/29 01:28:47;;;;;;;3.65;1.40;;;;;;;14.75;100.00;101969.06;6216882;23;20024;-78
2022/07/29 01:31:22;;;;;;;3.47;2.10;;;;;;;14.74;100.00;101961.09;6215008;23;20320;-78
2022/07/29 01:34:00;;;;;;;2.83;1.50;;;;;;;14.73;100.00;101960.22;6230847;23;20442;-77
2022/07/29 01:36:43;;;;;;;4.20;1.55;;;;;;;14.72;100.00;101953.13;6214213;23;20029;-78
2022/07/29 01:39:21;;;;;;;3.45;1.55;;;;;;;14.72;100.00;101953.13;6226895;23;20051;-78
2022/07/29 01:42:05;;;;;;;6.53;1.75;;;;;;;14.73;100.00;101954.03;6218639;23;20473;-77
2022/07/29 01:44:41;;;;;;;2.53;1.55;;;;;;;14.73;100.00;101951.38;6216699;23;20021;-77
2022/07/29 01:47:17;;;;;;;1.88;1.25;;;;;;;14.73;100.00;101948.72;6215705;23;20028;-77
2022/07/29 01:49:50;;;;;;;4.40;1.52;;;;;;;14.73;100.00;101956.69;6210810;23;20031;-78
2022/07/29 01:52:25;;;;;;;3.13;1.38;;;;;;;14.73;100.00;101949.59;6215644;23;20017;-77
2022/07/29 01:54:58;;;;;;;2.47;1.20;;;;;;;14.73;100.00;101951.38;6236592;23;20028;-77
2022/07/29 01:57:33;;;;;;;4.63;1.60;;;;;;;14.72;100.00;101942.50;6197138;23;20024;-77
2022/07/29 02:00:05;;;;;;;2.53;1.63;;;;;;;14.73;100.00;101943.41;6213495;23;20141;-77
2022/07/29 02:02:42;;;;;;;3.88;1.60;;;;;;;14.73;100.00;101940.75;6215203;23;20017;-78
2022/07/29 02:05:13;;;;;;;1.60;1.50;;;;;;;14.73;100.00;101932.81;6208851;23;20241;-78
2022/07/29 02:07:44;;;;;;;3.92;1.48;;;;;;;14.72;100.00;101937.19;6214931;23;20021;-78
2022/07/29 02:10:14;;;;;;;;;;;;;;;14.71;100.00;101929.25;6216901;23;20024;-78
2022/07/29 02:12:44;;;;;;;3.78;1.40;;;;;;;14.71;100.00;101927.50;6161851;23;20249;-78
2022/07/29 02:15:18;;;;;;;5.18;2.08;;;;;;;14.72;100.00;101923.94;6205274;23;20035;-78
2022/07/29 02:18:01;;;;;;;3.13;1.55;;;;;;;14.74;100.00;101918.63;6201766;23;20638;-78
2022/07/29 02:20:30;;;;;;;2.13;1.42;;;;;;;14.73;100.00;101922.19;6201575;23;20025;-78
2022/07/29 02:23:00;;;;;;;1.75;1.45;;;;;;;14.72;100.00;101913.31;6212467;23;20024;-78
2022/07/29 02:25:29;;;;;;;1.63;1.40;;;;;;;14.73;100.00;101919.53;6216186;23;20016;-78
2022/07/29 02:28:07;;;;;;;4.90;1.85;;;;;;;14.73;100.00;101927.50;6169527;23;20325;-78
2022/07/29 02:30:40;;;;;;;3.13;1.75;;;;;;;14.73;100.00;101915.09;6218380;23;20332;-78
2022/07/29 02:33:12;;;;;;;3.72;1.70;;;;;;;14.74;100.00;101908.03;6228943;23;20012;-77
2022/07/29 02:35:43;;;;;;;1.55;1.45;;;;;;;14.73;100.00;101900.97;6211187;23;20024;-78
2022/07/29 02:41:05;;;;;;;;;;;;;;;14.74;100.00;101902.72;6237053;23;20047;-77
2022/07/29 02:43:35;;;;;;;3.08;1.42;;;;;;;14.72;100.00;101915.09;6222424;23;19923;-77
2022/07/29 02:46:08;;;;;;;3.70;1.27;;;;;;;14.71;100.00;101903.59;6236848;23;20032;-77
2022/07/29 02:49:06;;;;;;;3.72;1.27;;;;;;;14.70;100.00;101900.94;6208932;23;20130;-77
2022/07/29 02:51:46;;;;;;;4.25;1.80;;;;;;;14.71;100.00;101903.59;6207198;23;20017;-77
2022/07/29 02:54:37;;;;;;;2.20;1.48;;;;;;;14.71;100.00;101903.59;6216561;23;20241;-77
2022/07/29 02:57:14;;;;;;;2.65;1.23;;;;;;;14.70;100.00;101896.50;6213611;23;20027;-77
2022/07/29 02:59:47;;;;;;;4.05;1.48;;;;;;;14.70;100.00;101896.50;6194282;23;20017;-77
2022/07/29 03:02:17;;;;;;;6.60;1.38;;;;;;;14.69;100.00;101894.75;6216451;23;20021;-77
2022/07/29 03:04:48;;;;;;;3.43;1.67;;;;;;;14.68;100.00;101895.63;6212102;23;20012;-78
2022/07/29 03:07:20;;;;;;;3.45;1.27;;;;;;;14.68;100.00;101898.28;6179275;23;20035;-79
2022/07/29 03:09:50;;;;;;;5.03;1.67;;;;;;;14.68;100.00;101892.97;6212980;23;20024;-78
2022/07/29 03:12:19;;;;;;;2.55;1.77;;;;;;;14.69;100.00;101891.19;6215186;23;20046;-78
2022/07/29 03:14:48;;;;;;;4.20;1.63;;;;;;;14.68;100.00;101892.09;6193307;23;20017;-78
2022/07/29 03:17:17;;;;;;;4.82;1.63;;;;;;;14.67;100.00;101880.59;6214695;23;20021;-77
2022/07/29 03:19:45;;;;;;;4.70;1.63;;;;;;;14.67;100.00;101880.59;6213444;23;20024;-78
2022/07/29 03:22:14;;;;;;;3.15;1.65;;;;;;;14.68;100.00;101886.78;6230739;23;20241;-78
2022/07/29 03:24:46;;;;;;;3.10;1.58;;;;;;;14.67;100.00;101879.69;6212587;23;20021;-78
2022/07/29 03:27:15;;;;;;;4.55;1.50;;;;;;;14.65;100.00;101878.81;6214660;23;20640;-78
2022/07/29 03:29:43;;;;;;;4.22;1.75;;;;;;;14.64;100.00;101872.63;6189444;23;20016;-78
2022/07/29 03:32:17;;;;;;;4.50;2.35;;;;;;;14.64;100.00;101875.28;6238373;23;20020;-78
2022/07/29 03:34:51;;;;;;;3.88;1.27;;;;;;;14.62;100.00;101872.63;6235747;23;20021;-78
2022/07/29 03:37:19;;;;;;;2.60;1.45;;;;;;;14.63;100.00;101873.53;6212826;23;20024;-78
2022/07/29 03:39:49;;;;;;;1.65;1.55;;;;;;;14.62;100.00;101869.97;6212532;23;20032;-78
2022/07/29 03:42:20;;;;;;;3.70;1.60;;;;;;;14.62;100.00;101877.94;6229946;23;20027;-78
2022/07/29 03:44:51;;;;;;;4.30;1.80;;;;;;;14.64;100.00;101869.09;6200235;23;20024;-78
2022/07/29 03:47:25;;;;;;;1.50;1.40;;;;;;;14.61;100.00;101870.88;6214746;23;20439;-78
2022/07/29 03:50:15;;;;;;;5.07;1.90;;;;;;;14.60;100.00;101871.72;6212928;23;20549;-78
2022/07/29 03:52:45;;;;;;;2.20;1.27;;;;;;;14.60;100.00;101869.09;6233125;23;20031;-78
2022/07/29 03:55:14;;;;;;;2.47;1.70;;;;;;;14.60;100.00;101871.72;6213214;23;20017;-78
2022/07/29 03:57:46;;;;;;;3.00;1.75;;;;;;;14.62;100.00;101877.94;6238574;23;20012;-78
2022/07/29 04:00:17;;;;;;;8.05;1.40;;;;;;;14.62;100.00;101866.44;6213518;23;20294;-78
2022/07/29 04:02:48;;;;;;;13.20;1.98;;;;;;;14.62;100.00;101866.44;6219089;23;20350;-78
2022/07/29 04:05:17;;;;;;;2.03;1.65;;;;;;;14.64;100.00;101854.06;6213534;23;20473;-78
2022/07/29 04:07:47;;;;;;;3.13;1.15;;;;;;;14.64;100.00;101858.50;6210064;23;20446;-78
2022/07/29 04:10:22;;;;;;;1.98;1.27;;;;;;;14.64;100.00;101869.97;6238776;23;20481;-79
2022/07/29 04:12:59;;;;;;;1.52;1.20;;;;;;;14.64;100.00;101856.72;6209835;23;20021;-78
2022/07/29 04:15:28;;;;;;;1.73;1.63;;;;;;;14.64;100.00;101856.72;6230226;23;20020;-79
2022/07/29 04:17:59;;;;;;;2.28;1.63;;;;;;;14.64;100.00;101856.72;6195543;23;20633;-79
2022/07/29 04:20:27;;;;;;;7.65;1.45;;;;;;;14.65;100.00;101860.25;6240929;23;20039;-79
2022/07/29 04:22:56;;;;;;;2.70;1.50;;;;;;;14.65;100.00;101865.56;6206320;23;20017;-77
2022/07/29 04:25:24;;;;;;;4.68;1.63;;;;;;;14.64;100.00;101858.50;6216425;23;20023;-80
2022/07/29 04:28:01;;;;;;;3.58;1.55;;;;;;;14.64;100.00;101862.03;6210359;23;20332;-77
2022/07/29 04:30:30;;;;;;;3.72;1.73;;;;;;;14.64;100.00;101855.84;6234667;23;20031;-77
2022/07/29 04:33:05;;;;;;;2.05;1.48;;;;;;;14.64;100.00;101847.88;6188449;23;20233;-77
2022/07/29 04:35:35;;;;;;;4.22;1.90;;;;;;;14.62;100.00;101847.88;6237685;23;20362;-77
2022/07/29 04:38:12;;;;;;;2.03;1.25;;;;;;;14.62;100.00;101847.88;6208736;23;20158;-79
2022/07/29 04:40:44;;;;;;;3.85;1.58;;;;;;;14.63;100.00;101841.69;6209971;23;20024;-78
2022/07/29 04:43:15;;;;;;;2.38;1.60;;;;;;;14.64;100.00;101846.09;6213423;23;20202;-78
2022/07/29 04:45:50;;;;;;;2.95;1.40;;;;;;;14.66;100.00;101854.94;6188912;23;20016;-78
2022/07/29 04:48:18;;;;;;;2.75;1.80;;;;;;;14.67;100.00;101854.09;6196454;23;20024;-78
2022/07/29 04:50:51;;;;;;;4.70;1.70;;;;;;;14.69;100.00;101867.31;6210355;23;20035;-78
2022/07/29 04:53:19;;;;;;;5.57;1.50;;;;;;;14.69;100.00;101862.94;6240255;23;20023;-78
2022/07/29 04:55:48;;;;;;;3.10;1.50;;;;;;;14.71;100.00;101861.16;6208118;23;20023;-78
2022/07/29 04:58:16;;;;;;;3.33;1.85;;;;;;;14.73;100.00;101855.88;6213472;23;20020;-79
2022/07/29 05:00:45;;;;;;;3.42;1.70;;;;;;;14.76;100.00;101858.50;6210755;23;20032;-77
2022/07/29 05:03:13;;;;;;;6.22;1.90;;;;;;;14.78;100.00;101854.09;6154276;23;20029;-79
2022/07/29 05:05:42;;;;;;;2.40;1.65;;;;;;;14.80;100.00;101853.22;6201655;23;20017;-79
2022/07/29 05:08:10;;;;;;;2.42;1.40;;;;;;;14.83;100.00;101854.97;6200109;23;20013;-78
2022/07/29 05:10:39;;;;;;;5.00;2.28;;;;;;;14.83;100.00;101852.31;6209871;23;20031;-79
2022/07/29 05:13:07;;;;;;;3.60;1.80;;;;;;;14.85;100.00;101855.00;6211409;23;20467;-79
2022/07/29 05:15:36;;;;;;;5.07;2.17;;;;;;;14.87;100.00;101859.41;6202695;23;20021;-78
2022/07/29 05:18:05;;;;;;;5.28;1.98;;;;;;;14.89;100.00;101854.97;6189437;23;20047;-79
2022/07/29 05:20:34;;;;;;;6.35;1.90;;;;;;;14.91;100.00;101860.28;6177554;23;20025;-78
2022/07/29 05:23:02;;;;;;;5.00;2.00;;;;;;;14.92;100.00;101862.09;6214200;23;20020;-78
2022/07/29 05:25:31;;;;;;;3.17;1.70;;;;;;;14.94;100.00;101860.31;6212590;23;20815;-78
2022/07/29 05:28:12;;;;;;;6.10;1.55;;;;;;;14.96;100.00;101855.88;6215270;23;20020;-79
2022/07/29 05:30:40;;;;;;;9.50;1.77;;;;;;;14.97;100.00;101847.03;6217527;23;20027;-78
2022/07/29 05:33:08;;;;;;;6.72;1.85;;;;;;;14.99;100.00;101850.59;6195072;23;20294;-78
2022/07/29 05:35:57;;;;;;;10.20;2.10;;;;;;;14.99;100.00;101845.28;6233008;23;20466;-78
2022/07/29 05:38:28;;;;;;;4.32;2.00;;;;;;;15.00;100.00;101847.91;6239252;23;20016;-78
2022/07/29 05:40:59;;;;;;;6.30;1.80;;;;;;;15.04;100.00;101855.91;6198284;23;20016;-78
2022/07/29 05:43:28;;;;;;;6.45;2.20;;;;;;;15.07;100.00;101854.13;6210570;23;20021;-77
2022/07/29 05:45:56;;;;;;;4.43;1.88;;;;;;;15.09;100.00;101851.47;6167695;23;20552;-79
2022/07/29 05:48:25;;;;;;;5.18;1.55;;;;;;;15.12;100.00;101852.38;6133507;23;20021;-79
2022/07/29 05:50:54;;;;;;;8.02;2.22;;;;;;;15.13;100.00;101859.44;6187240;23;20029;-80
2022/07/29 05:53:23;;;;;;;6.50;1.90;;;;;;;15.14;100.00;101855.91;6180419;23;20025;-77
2022/07/29 05:55:52;;;;;;;5.63;2.08;;;;;;;15.16;100.00;101875.38;6201361;23;20024;-79
2022/07/29 05:58:20;;;;;;;3.08;2.08;;;;;;;15.16;100.00;101851.47;6203680;23;20061;-76
2022/07/29 06:00:49;;;;;;;5.80;1.95;;;;;;;15.19;100.00;101843.50;6204578;23;20017;-79
2022/07/29 06:03:17;;;;;;;10.98;2.25;;;;;;;15.26;100.00;101840.88;6210270;23;20466;-76
2022/07/29 06:05:46;;;;;;;7.57;1.90;;;;;;;15.36;100.00;101839.97;6186528;23;20021;-76
2022/07/29 06:08:14;;;;;;;9.18;2.30;;;;;;;15.50;100.00;101838.19;6211995;23;20024;-76
2022/07/29 06:10:43;;;;;;;4.97;2.08;;;;;;;15.65;100.00;101842.59;6205240;23;20024;-77
2022/07/29 06:13:12;;;;;;;5.55;1.80;;;;;;;15.78;100.00;101836.41;6186537;23;20143;-78
2022/07/29 06:15:40;;;;;;;8.50;2.15;;;;;;;15.86;100.00;101835.47;6210808;23;20021;-78
2022/07/29 06:18:09;;;;;;;7.63;2.17;;;;;;;15.92;100.00;101827.50;6179506;23;20020;-78
2022/07/29 06:20:38;;;;;;;4.47;1.65;;;;;;;16.00;100.00;101832.78;6195522;23;20017;-78
2022/07/29 06:23:06;;;;;;;4.43;1.90;;;;;;;16.07;100.00;101829.22;6214897;23;20024;-78
2022/07/29 06:25:36;;;;;;;6.07;1.90;;;;;;;16.12;100.00;101832.72;6200755;23;20431;-78
2022/07/29 06:28:05;;;;;;;8.63;2.70;;;;;;;16.17;100.00;101831.81;6213662;23;20027;-78
2022/07/29 06:30:34;;;;;;;7.80;2.25;;;;;;;16.23;100.00;101840.66;6191439;23;20035;-78
2022/07/29 06:33:03;;;;;;;3.65;1.92;;;;;;;16.30;100.00;101834.44;6213377;23;20028;-78
2022/07/29 06:35:35;;;;;;;5.20;2.00;;;;;;;16.39;100.00;101847.69;6192888;23;20031;-78
2022/07/29 06:38:09;;;;;;;5.22;1.77;;;;;;;16.45;100.00;101844.09;6227305;23;20017;-78
2022/07/29 06:41:02;;;;;;;13.60;2.10;;;;;;;16.48;100.00;101834.34;6206400;23;20021;-78
2022/07/29 06:43:41;;;;;;;5.13;2.15;;;;;;;16.47;100.00;101835.22;6208423;23;20016;-78
2022/07/29 06:46:21;;;;;;;4.40;1.80;;;;;;;16.50;100.00;101842.28;6233686;23;20017;-78
2022/07/29 06:48:51;;;;;;;4.13;2.00;;;;;;;16.48;100.00;101847.66;6188051;23;20024;-78
2022/07/29 06:51:21;;;;;;;5.18;1.80;;;;;;;16.49;100.00;101843.19;6215025;23;20016;-78
2022/07/29 06:53:52;;;;;;;5.00;1.98;;;;;;;16.48;100.00;101844.06;6226900;23;20027;-78
2022/07/29 06:56:31;;;;;;;5.88;2.15;;;;;;;16.49;100.00;101846.72;6206937;23;20343;-78
2022/07/29 06:59:08;;;;;;;8.45;1.90;;;;;;;16.52;100.00;101846.72;6204696;23;20024;-78
2022/07/29 07:01:38;;;;;;;9.50;2.42;;;;;;;16.51;100.00;101849.38;6233556;23;20319;-78
2022/07/29 07:04:10;;;;;;;7.60;1.90;;;;;;;16.56;100.00;101850.25;6240843;23;20039;-78
2022/07/29 07:06:39;;;;;;;6.43;2.08;;;;;;;16.64;100.00;101852.88;6191963;23;20621;-78
2022/07/29 07:09:07;;;;;;;13.25;2.10;;;;;;;16.71;100.00;101855.47;6186861;23;20024;-78
2022/07/29 07:11:36;;;;;;;4.70;2.00;;;;;;;16.78;100.00;101856.31;6174397;23;20035;-78
2022/07/29 07:14:04;;;;;;;1.77;1.63;;;;;;;16.77;100.00;101854.56;6242182;23;20024;-78
2022/07/29 07:16:33;;;;;;;4.03;1.98;;;;;;;16.75;100.00;101867.88;6212457;23;20241;-78
2022/07/29 07:19:01;;;;;;;5.07;2.10;;;;;;;16.75;100.00;101857.22;6236815;23;20020;-78
2022/07/29 07:21:30;;;;;;;5.82;1.88;;;;;;;16.77;100.00;101859.88;6193338;23;20405;-78
2022/07/29 07:23:59;;;;;;;9.70;2.10;;;;;;;16.78;100.00;101851.00;6211853;23;20451;-79
2022/07/29 07:26:28;;;;;;;9.02;2.30;;;;;;;16.83;100.00;101861.66;6220872;23;20430;-78
2022/07/29 07:28:57;;;;;;;5.68;1.70;;;;;;;16.89;100.00;101853.63;6216696;23;20024;-78
2022/07/29 07:31:25;;;;;;;3.30;1.70;;;;;;;16.88;100.00;101857.16;6214368;23;20013;-78
2022/07/29 07:33:53;;;;;;;6.20;1.90;;;;;;;16.87;100.00;101850.97;6178650;23;20025;-78
2022/07/29 07:36:23;;;;;;;4.05;1.92;;;;;;;16.91;100.00;101852.69;6142840;23;20028;-78
2022/07/29 07:38:51;;;;;;;9.48;1.92;;;;;;;16.93;99.95;101850.03;6183121;23;20032;-78
2022/07/29 07:41:21;;;;;;;1.80;1.60;;;;;;;16.92;99.80;101848.28;6176521;23;20048;-78
2022/07/29 07:43:49;;;;;;;4.55;1.77;;;;;;;16.90;99.77;101848.28;6181000;23;20029;-79
2022/07/29 07:46:17;;;;;;;3.85;1.95;;;;;;;16.93;99.80;101850.03;6183888;23;20021;-78
2022/07/29 07:48:46;;;;;;;5.05;1.85;;;;;;;16.98;99.91;101855.34;6185446;23;20019;-79
2022/07/29 07:51:15;;;;;;;5.20;2.03;;;;;;;17.04;99.79;101852.63;6138889;23;20021;-78
2022/07/29 07:53:44;;;;;;;5.75;1.73;;;;;;;17.11;99.44;101863.22;6159498;23;20025;-78
2022/07/29 07:56:12;;;;;;;2.00;1.60;;;;;;;17.17;99.32;101854.28;6175143;23;20495;-78
2022/07/29 07:58:41;;;;;;;3.78;1.83;;;;;;;17.25;99.37;101857.78;6179751;23;20028;-78
2022/07/29 08:01:09;;;;;;;6.57;1.88;;;;;;;17.31;99.59;101859.50;6203038;23;20021;-78
2022/07/29 08:03:38;;;;;;;3.47;1.80;;;;;;;17.39;98.83;101862.09;6183488;23;20048;-78
2022/07/29 08:06:07;;;;;;;5.03;1.70;;;;;;;17.42;98.86;101857.63;6180128;23;20203;-78
2022/07/29 08:08:37;;;;;;;4.20;2.20;;;;;;;17.53;98.58;101862.88;6188255;23;20013;-78
2022/07/29 08:11:06;;;;;;;3.85;1.90;;;;;;;17.58;97.60;101855.72;6180733;23;20219;-78
2022/07/29 08:13:38;;;;;;;6.32;1.60;;;;;;;17.66;97.65;101860.97;6182631;23;20025;-78
2022/07/29 08:16:14;;;;;;;5.28;1.90;;;;;;;17.73;97.72;101855.56;6184706;23;20024;-78
2022/07/29 08:18:44;;;;;;;6.85;2.58;;;;;;;17.80;96.35;101855.47;6185173;23;20013;-78
2022/07/29 08:21:17;;;;;;;4.85;1.55;;;;;;;17.84;95.95;101854.53;6182633;23;20020;-78
2022/07/29 08:23:47;;;;;;;3.30;2.08;;;;;;;17.87;96.06;101857.22;6182693;23;20447;-76
2022/07/29 08:26:27;;;;;;;;;;;;;;;17.95;95.78;101850.00;6181809;23;20027;-76
2022/07/29 08:28:55;;;;;;;2.70;1.60;;;;;;;18.02;95.88;101853.50;6147902;23;20046;-78
2022/07/29 08:31:23;;;;;;;7.78;2.10;;;;;;;18.11;95.89;101846.25;6172658;23;20048;-78
2022/07/29 08:33:52;;;;;;;4.40;1.67;;;;;;;18.20;94.78;101852.38;6178807;23;20246;-76
2022/07/29 08:36:20;;;;;;;5.03;2.08;;;;;;;18.23;94.15;101839.88;6181579;23;20065;-78
2022/07/29 08:38:49;;;;;;;3.67;1.80;;;;;;;18.32;94.59;101841.56;6079007;23;20438;-78
2022/07/29 08:41:19;;;;;;;6.35;1.83;;;;;;;18.40;93.50;101853.00;6085437;23;20313;-77
2022/07/29 08:43:48;;;;;;;3.58;1.80;;;;;;;18.44;92.98;101849.38;6123999;23;20037;-78
2022/07/29 08:46:18;;;;;;;5.50;2.28;;;;;;;18.47;92.80;101848.47;6084104;23;20339;-78
2022/07/29 08:48:47;;;;;;;8.13;2.23;;;;;;;18.54;92.57;101842.13;6123281;23;20475;-78
2022/07/29 08:51:20;;;;;;;6.90;1.77;;;;;;;18.61;92.12;101846.47;6100911;23;20368;-77
2022/07/29 08:53:50;;;;;;;4.88;1.75;;;;;;;18.70;92.86;101857.03;6091234;23;20018;-77
2022/07/29 08:56:20;;;;;;;3.42;1.77;;;;;;;18.76;90.76;101847.19;6066263;23;20053;-78
2022/07/29 08:58:52;;;;;;;4.30;1.65;;;;;;;18.79;90.09;101849.78;6090395;23;20018;-77
2022/07/29 09:01:24;;;;;;;6.03;1.92;;;;;;;18.83;89.71;101855.09;6114750;23;20081;-77
2022/07/29 09:04:14;;;;;;;5.78;1.90;;;;;;;18.86;89.27;101847.03;6082553;23;20029;-77
2022/07/29 09:06:46;;;;;;;3.63;1.73;;;;;;;18.89;89.24;101857.66;6123365;23;20029;-77
2022/07/29 09:09:15;;;;;;;4.50;1.70;;;;;;;18.92;87.74;101866.53;6066504;23;20451;-77
2022/07/29 09:11:43;;;;;;;6.47;1.83;;;;;;;18.92;87.85;101847.84;6120829;23;20026;-77
2022/07/29 09:14:13;;;;;;;4.32;2.15;;;;;;;18.89;87.15;101852.31;6115864;23;20022;-77
2022/07/29 09:16:53;;;;;;;3.20;1.75;;;;;;;18.85;86.50;101845.28;6123960;23;20021;-78
2022/07/29 09:19:24;;;;;;;2.42;1.73;;;;;;;18.83;87.18;101851.56;6140373;23;20339;-77
2022/07/29 09:22:00;;;;;;;6.43;2.15;;;;;;;18.81;87.16;101838.22;6183408;23;20021;-77
2022/07/29 09:24:34;;;;;;;8.57;2.13;;;;;;;18.87;87.14;101858.63;6173346;23;20286;-77
2022/07/29 09:27:08;;;;;;;5.50;1.80;;;;;;;18.84;85.88;101843.50;6152406;23;20036;-78
2022/07/29 09:29:37;;;;;;;3.92;1.85;;;;;;;18.79;86.60;101840.00;6182718;23;20017;-78
2022/07/29 09:32:09;;;;;;;4.25;2.60;;;;;;;18.76;86.45;101841.84;6174666;23;20017;-77
2022/07/29 09:34:38;;;;;;;6.25;2.10;;;;;;;18.77;86.69;101835.56;6178099;23;20021;-76
2022/07/29 09:37:07;;;;;;;5.03;2.15;;;;;;;18.76;87.28;101847.19;6182642;23;20013;-76
2022/07/29 09:39:46;;;;;;;4.72;1.98;;;;;;;18.79;87.24;101834.66;6202058;23;20013;-78
2022/07/29 09:42:28;;;;;;;2.60;2.00;;;;;;;18.86;87.63;101848.81;6156063;23;20143;-77
2022/07/29 09:44:56;;;;;;;6.10;2.25;;;;;;;18.83;87.27;101843.53;6182577;23;20021;-77
2022/07/29 09:47:41;;;;;;;3.95;2.10;;;;;;;18.80;87.89;101844.44;6174790;23;20325;-78
2022/07/29 09:50:09;;;;;;;4.97;2.58;;;;;;;18.77;87.68;101838.25;6179972;23;20032;-77
2022/07/29 09:52:50;;;;;;;4.63;2.42;;;;;;;18.78;88.54;101838.22;6153798;23;20017;-77
2022/07/29 09:55:19;;;;;;;4.00;1.92;;;;;;;18.79;88.51;101832.00;6169291;23;20017;-77
2022/07/29 09:57:47;;;;;;;7.10;2.20;;;;;;;18.75;88.70;101838.28;6165594;23;20028;-77
2022/07/29 10:00:18;;;;;;;6.25;2.30;;;;;;;18.75;88.71;101832.94;6176591;23;20013;-79
2022/07/29 10:02:47;;;;;;;3.78;2.60;;;;;;;18.82;89.08;101831.09;6141802;23;20064;-77
2022/07/29 10:05:18;;;;;;;6.03;2.47;;;;;;;18.85;89.24;101834.59;6179956;23;20318;-79
2022/07/29 10:07:55;;;;;;;3.85;2.00;;;;;;;18.89;89.40;101827.41;6186281;23;20025;-77
2022/07/29 10:10:30;;;;;;;6.45;2.45;;;;;;;18.92;89.60;101835.38;6170686;23;20371;-77
2022/07/29 10:13:01;;;;;;;5.65;2.67;;;;;;;18.96;89.51;101833.53;6163128;23;20021;-77
2022/07/29 10:15:40;;;;;;;5.13;2.35;;;;;;;19.03;90.22;101825.38;6184193;23;20021;-78
2022/07/29 10:18:11;;;;;;;2.35;1.98;;;;;;;19.16;90.82;101833.22;6176062;23;20024;-77
2022/07/29 10:20:40;;;;;;;;;;;;;;;19.31;91.25;101832.94;6181646;23;20020;-77
2022/07/29 10:23:09;;;;;;;5.80;2.00;;;;;;;19.40;89.84;101835.47;6177452;23;20365;-77
2022/07/29 10:25:37;;;;;;;7.00;2.00;;;;;;;19.45;89.58;101833.59;6179427;23;20021;-77
2022/07/29 10:28:06;;;;;;;3.10;2.42;;;;;;;19.56;89.00;101840.53;6152350;23;20021;-77
2022/07/29 10:30:38;;;;;;;6.32;2.50;;;;;;;19.63;89.35;101832.34;6204624;23;20017;-77
2022/07/29 10:33:28;;;;;;;3.65;1.90;;;;;;;19.72;89.24;101834.03;6198155;23;20027;-77
2022/07/29 10:36:25;;;;;;;4.72;2.22;;;;;;;19.78;89.45;101825.88;6183190;23;20024;-76
2022/07/29 10:38:54;;;;;;;5.40;2.47;;;;;;;19.79;88.53;101830.31;6171074;23;20021;-78
2022/07/29 10:41:51;;;;;;;4.60;2.40;;;;;;;19.74;88.55;101821.50;6177244;23;20017;-77
2022/07/29 10:44:23;;;;;;;5.25;2.47;;;;;;;19.72;88.55;101817.97;6155565;23;20262;-80
2022/07/29 10:46:53;;;;;;;6.25;2.17;;;;;;;19.75;89.42;101814.34;6186082;23;20040;-79
2022/07/29 10:49:24;;;;;;;8.02;2.42;;;;;;;19.82;89.63;101816.00;6165282;23;20058;-77
2022/07/29 10:51:54;;;;;;;7.50;2.50;;;;;;;19.86;89.18;101810.53;6207580;23;20028;-78
2022/07/29 10:54:37;;;;;;;3.30;2.13;;;;;;;19.93;88.60;101807.75;6140262;23;20040;-77
2022/07/29 10:57:27;;;;;;;3.25;1.98;;;;;;;20.01;88.93;101800.44;6176513;23;20025;-77
2022/07/29 11:00:27;;;;;;;4.32;1.85;;;;;;;20.08;88.25;101804.75;6155743;23;20017;-77
2022/07/29 11:02:57;;;;;;;3.95;2.22;;;;;;;20.14;87.95;101807.31;6159524;23;20028;-77
2022/07/29 11:05:31;;;;;;;4.15;2.05;;;;;;;20.19;86.65;101805.41;6153723;23;20598;-77
2022/07/29 11:08:22;;;;;;;3.55;2.15;;;;;;;20.21;85.24;101800.91;6181004;23;20025;-77
2022/07/29 11:11:19;;;;;;;9.32;2.03;;;;;;;20.23;85.43;101801.75;6170451;23;20450;-77
2022/07/29 11:13:51;;;;;;;4.13;1.83;;;;;;;20.23;83.94;101803.56;6175656;23;20025;-81
2022/07/29 11:16:22;;;;;;;6.78;1.60;;;;;;;20.24;83.76;101805.31;6161285;23;20138;-78
2022/07/29 11:19:10;;;;;;;8.05;2.30;;;;;;;20.29;83.06;101806.09;6167762;23;20458;-77
2022/07/29 11:21:43;;;;;;;6.03;2.13;;;;;;;20.36;82.23;101804.13;6182789;23;20028;-77
2022/07/29 11:24:27;;;;;;;5.43;1.75;;;;;;;20.43;81.25;101811.13;6173172;23;20697;-78
2022/07/29 11:27:21;;;;;;;6.88;2.03;;;;;;;20.51;81.17;101809.19;6185227;23;20031;-78
2022/07/29 11:29:51;;;;;;;3.30;1.60;;;;;;;20.64;82.01;101807.09;6209749;23;20346;-78
2022/07/29 11:32:23;;;;;;;6.68;2.28;;;;;;;20.73;81.19;101809.56;6156000;23;20512;-78
2022/07/29 11:35:14;;;;;;;4.63;2.35;;;;;;;20.77;81.29;101802.34;6183068;23;20021;-78
2022/07/29 11:37:46;;;;;;;3.88;1.75;;;;;;;20.84;81.62;101817.34;6179756;23;20021;-78
2022/07/29 11:40:23;;;;;;;7.10;2.42;;;;;;;20.91;81.37;101813.59;6172529;23;20020;-78
2022/07/29 11:42:53;;;;;;;9.23;2.17;;;;;;;20.96;82.11;101811.72;6186346;23;20025;-78
2022/07/29 11:45:44;;;;;;;5.13;2.40;;;;;;;21.03;82.32;101805.25;6186315;23;20025;-78
2022/07/29 11:48:17;;;;;;;4.45;2.03;;;;;;;21.11;81.52;101798.81;6183664;23;20020;-78
2022/07/29 11:50:59;;;;;;;2.95;1.80;;;;;;;21.14;80.98;101798.75;6180357;23;20017;-79
2022/07/29 11:53:28;;;;;;;5.90;2.13;;;;;;;21.20;81.35;101803.94;6173772;23;20021;-76